sensor_id;sensor_type;location;lat;lon;timestamp;P1;durP1;ratioP1;P2;durP2;ratioP2
45326;SDS011;31062;49.678;24.560;2022-12-31T00:00:40;75.22;;;26.88;;
45326;SDS011;31062;49.678;24.560;2022-12-31T00:03:25;58.88;;;22.92;;
45326;SDS011;31062;49.678;24.560;2022-12-31T00:06:33;117.72;;;34.05;;
45326;SDS011;31062;49.678;24.560;2022-12-31T00:09:19;118.47;;;35.00;;
45326;SDS011;31062;49.678;24.560;2022-12-31T00:12:04;118.47;;;36.53;;
45326;SDS011;31062;49.678;24.560;2022-12-31T00:14:50;109.03;;;38.53;;
45326;SDS011;31062;49.678;24.560;2022-12-31T00:17:36;125.40;;;44.85;;
45326;SDS011;31062;49.678;24.560;2022-12-31T00:20:21;121.85;;;42.90;;
45326;SDS011;31062;49.678;24.560;2022-12-31T00:23:08;120.32;;;41.15;;
45326;SDS011;31062;49.678;24.560;2022-12-31T00:25:54;99.50;;;36.85;;
45326;SDS011;31062;49.678;24.560;2022-12-31T00:28:39;86.82;;;35.60;;
45326;SDS011;31062;49.678;24.560;2022-12-31T00:31:30;77.63;;;33.33;;
45326;SDS011;31062;49.678;24.560;2022-12-31T00:34:17;83.65;;;32.83;;
45326;SDS011;31062;49.678;24.560;2022-12-31T00:37:03;103.65;;;37.65;;
45326;SDS011;31062;49.678;24.560;2022-12-31T00:39:48;103.80;;;36.85;;
45326;SDS011;31062;49.678;24.560;2022-12-31T00:42:33;123.35;;;42.65;;
45326;SDS011;31062;49.678;24.560;2022-12-31T00:45:18;115.18;;;37.90;;
45326;SDS011;31062;49.678;24.560;2022-12-31T00:48:04;83.70;;;32.72;;
45326;SDS011;31062;49.678;24.560;2022-12-31T00:50:50;92.28;;;36.15;;
45326;SDS011;31062;49.678;24.560;2022-12-31T00:53:35;82.22;;;34.15;;
45326;SDS011;31062;49.678;24.560;2022-12-31T00:56:23;95.20;;;35.58;;
45326;SDS011;31062;49.678;24.560;2022-12-31T00:59:10;72.13;;;31.85;;
45326;SDS011;31062;49.678;24.560;2022-12-31T01:01:55;76.43;;;33.17;;
45326;SDS011;31062;49.678;24.560;2022-12-31T01:04:41;82.97;;;33.65;;
45326;SDS011;31062;49.678;24.560;2022-12-31T01:07:26;64.38;;;28.13;;
45326;SDS011;31062;49.678;24.560;2022-12-31T01:10:12;57.65;;;26.55;;
45326;SDS011;31062;49.678;24.560;2022-12-31T01:13:17;56.25;;;21.98;;
45326;SDS011;31062;49.678;24.560;2022-12-31T01:16:10;51.50;;;21.75;;
45326;SDS011;31062;49.678;24.560;2022-12-31T01:18:58;39.95;;;19.88;;
45326;SDS011;31062;49.678;24.560;2022-12-31T01:21:45;36.97;;;18.77;;
45326;SDS011;31062;49.678;24.560;2022-12-31T01:24:31;43.83;;;18.08;;
45326;SDS011;31062;49.678;24.560;2022-12-31T01:27:17;44.13;;;17.10;;
45326;SDS011;31062;49.678;24.560;2022-12-31T01:30:03;37.13;;;17.77;;
45326;SDS011;31062;49.678;24.560;2022-12-31T01:32:49;38.75;;;17.90;;
45326;SDS011;31062;49.678;24.560;2022-12-31T01:35:35;36.58;;;16.40;;
45326;SDS011;31062;49.678;24.560;2022-12-31T01:38:21;31.15;;;15.65;;
45326;SDS011;31062;49.678;24.560;2022-12-31T01:41:06;27.42;;;14.60;;
45326;SDS011;31062;49.678;24.560;2022-12-31T01:43:59;30.10;;;15.73;;
45326;SDS011;31062;49.678;24.560;2022-12-31T01:46:47;35.87;;;14.70;;
45326;SDS011;31062;49.678;24.560;2022-12-31T01:52:39;34.22;;;16.23;;
45326;SDS011;31062;49.678;24.560;2022-12-31T01:58:41;27.25;;;14.05;;
45326;SDS011;31062;49.678;24.560;2022-12-31T02:01:30;21.42;;;12.98;;
45326;SDS011;31062;49.678;24.560;2022-12-31T02:04:17;26.40;;;13.88;;
45326;SDS011;31062;49.678;24.560;2022-12-31T02:07:03;27.13;;;14.55;;
45326;SDS011;31062;49.678;24.560;2022-12-31T02:09:50;39.67;;;13.23;;
45326;SDS011;31062;49.678;24.560;2022-12-31T02:12:38;28.27;;;14.02;;
45326;SDS011;31062;49.678;24.560;2022-12-31T02:21:53;46.08;;;22.73;;
45326;SDS011;31062;49.678;24.560;2022-12-31T02:31:04;36.63;;;16.13;;
45326;SDS011;31062;49.678;24.560;2022-12-31T02:33:58;32.75;;;15.93;;
45326;SDS011;31062;49.678;24.560;2022-12-31T02:37:03;31.25;;;15.85;;
45326;SDS011;31062;49.678;24.560;2022-12-31T02:39:52;34.30;;;16.40;;
45326;SDS011;31062;49.678;24.560;2022-12-31T02:42:39;39.50;;;16.75;;
45326;SDS011;31062;49.678;24.560;2022-12-31T02:45:29;35.33;;;17.10;;
45326;SDS011;31062;49.678;24.560;2022-12-31T03:00:51;25.20;;;11.35;;
45326;SDS011;31062;49.678;24.560;2022-12-31T03:03:59;24.77;;;12.32;;
45326;SDS011;31062;49.678;24.560;2022-12-31T03:07:12;30.10;;;12.00;;
45326;SDS011;31062;49.678;24.560;2022-12-31T03:10:02;25.58;;;11.40;;
45326;SDS011;31062;49.678;24.560;2022-12-31T03:12:47;19.90;;;11.38;;
45326;SDS011;31062;49.678;24.560;2022-12-31T03:15:33;17.55;;;10.77;;
45326;SDS011;31062;49.678;24.560;2022-12-31T03:18:19;20.17;;;10.82;;
45326;SDS011;31062;49.678;24.560;2022-12-31T03:21:27;20.48;;;11.07;;
45326;SDS011;31062;49.678;24.560;2022-12-31T03:24:31;20.52;;;11.68;;
45326;SDS011;31062;49.678;24.560;2022-12-31T03:27:35;18.33;;;10.63;;
45326;SDS011;31062;49.678;24.560;2022-12-31T03:30:20;15.38;;;9.98;;
45326;SDS011;31062;49.678;24.560;2022-12-31T03:33:07;21.48;;;11.65;;
45326;SDS011;31062;49.678;24.560;2022-12-31T03:35:53;19.83;;;11.35;;
45326;SDS011;31062;49.678;24.560;2022-12-31T03:38:39;23.50;;;10.02;;
45326;SDS011;31062;49.678;24.560;2022-12-31T03:41:25;29.70;;;12.43;;
45326;SDS011;31062;49.678;24.560;2022-12-31T03:44:10;36.60;;;15.48;;
45326;SDS011;31062;49.678;24.560;2022-12-31T03:46:55;29.75;;;16.30;;
45326;SDS011;31062;49.678;24.560;2022-12-31T03:49:41;33.15;;;18.13;;
45326;SDS011;31062;49.678;24.560;2022-12-31T03:52:26;35.10;;;16.77;;
45326;SDS011;31062;49.678;24.560;2022-12-31T03:55:12;32.95;;;14.45;;
45326;SDS011;31062;49.678;24.560;2022-12-31T03:57:57;23.98;;;13.73;;
45326;SDS011;31062;49.678;24.560;2022-12-31T04:00:43;18.95;;;12.82;;
45326;SDS011;31062;49.678;24.560;2022-12-31T04:03:28;18.80;;;11.77;;
45326;SDS011;31062;49.678;24.560;2022-12-31T04:06:14;18.25;;;11.45;;
45326;SDS011;31062;49.678;24.560;2022-12-31T04:08:59;15.90;;;10.77;;
45326;SDS011;31062;49.678;24.560;2022-12-31T04:11:45;15.68;;;10.50;;
45326;SDS011;31062;49.678;24.560;2022-12-31T04:14:30;17.30;;;10.65;;
45326;SDS011;31062;49.678;24.560;2022-12-31T04:17:16;15.02;;;10.30;;
45326;SDS011;31062;49.678;24.560;2022-12-31T04:20:02;16.17;;;10.18;;
45326;SDS011;31062;49.678;24.560;2022-12-31T04:22:47;11.90;;;9.27;;
45326;SDS011;31062;49.678;24.560;2022-12-31T04:25:33;14.88;;;9.27;;
45326;SDS011;31062;49.678;24.560;2022-12-31T04:28:18;14.95;;;9.90;;
45326;SDS011;31062;49.678;24.560;2022-12-31T04:31:03;13.32;;;8.90;;
45326;SDS011;31062;49.678;24.560;2022-12-31T04:33:49;14.30;;;10.30;;
45326;SDS011;31062;49.678;24.560;2022-12-31T04:36:35;15.38;;;10.38;;
45326;SDS011;31062;49.678;24.560;2022-12-31T04:39:20;16.67;;;10.05;;
45326;SDS011;31062;49.678;24.560;2022-12-31T04:42:06;15.40;;;9.80;;
45326;SDS011;31062;49.678;24.560;2022-12-31T04:44:52;14.30;;;10.15;;
45326;SDS011;31062;49.678;24.560;2022-12-31T04:47:37;15.20;;;10.90;;
45326;SDS011;31062;49.678;24.560;2022-12-31T04:50:22;17.92;;;10.80;;
45326;SDS011;31062;49.678;24.560;2022-12-31T04:53:08;20.52;;;11.10;;
45326;SDS011;31062;49.678;24.560;2022-12-31T04:55:53;25.55;;;13.02;;
45326;SDS011;31062;49.678;24.560;2022-12-31T04:58:39;35.33;;;12.82;;
45326;SDS011;31062;49.678;24.560;2022-12-31T05:01:24;23.23;;;12.43;;
45326;SDS011;31062;49.678;24.560;2022-12-31T05:04:10;27.13;;;14.25;;
45326;SDS011;31062;49.678;24.560;2022-12-31T05:06:56;29.10;;;14.60;;
45326;SDS011;31062;49.678;24.560;2022-12-31T05:09:42;23.55;;;13.30;;
45326;SDS011;31062;49.678;24.560;2022-12-31T05:12:27;25.98;;;13.07;;
45326;SDS011;31062;49.678;24.560;2022-12-31T05:15:12;31.35;;;14.13;;
45326;SDS011;31062;49.678;24.560;2022-12-31T05:17:58;28.33;;;14.82;;
45326;SDS011;31062;49.678;24.560;2022-12-31T05:20:44;35.17;;;15.55;;
45326;SDS011;31062;49.678;24.560;2022-12-31T05:23:30;30.98;;;15.68;;
45326;SDS011;31062;49.678;24.560;2022-12-31T05:26:16;32.72;;;16.63;;
45326;SDS011;31062;49.678;24.560;2022-12-31T05:29:01;28.92;;;14.50;;
45326;SDS011;31062;49.678;24.560;2022-12-31T05:31:46;22.27;;;14.18;;
45326;SDS011;31062;49.678;24.560;2022-12-31T05:34:32;23.13;;;14.80;;
45326;SDS011;31062;49.678;24.560;2022-12-31T05:37:17;25.17;;;15.23;;
45326;SDS011;31062;49.678;24.560;2022-12-31T05:40:03;22.15;;;14.40;;
45326;SDS011;31062;49.678;24.560;2022-12-31T05:42:49;23.63;;;15.93;;
45326;SDS011;31062;49.678;24.560;2022-12-31T05:45:34;18.23;;;12.90;;
45326;SDS011;31062;49.678;24.560;2022-12-31T05:48:20;19.17;;;11.48;;
45326;SDS011;31062;49.678;24.560;2022-12-31T05:51:06;17.10;;;11.35;;
45326;SDS011;31062;49.678;24.560;2022-12-31T05:53:52;18.15;;;11.23;;
45326;SDS011;31062;49.678;24.560;2022-12-31T05:56:37;25.58;;;11.18;;
45326;SDS011;31062;49.678;24.560;2022-12-31T05:59:23;16.55;;;10.68;;
45326;SDS011;31062;49.678;24.560;2022-12-31T06:02:08;19.88;;;12.05;;
45326;SDS011;31062;49.678;24.560;2022-12-31T06:04:54;25.10;;;12.75;;
45326;SDS011;31062;49.678;24.560;2022-12-31T06:07:39;27.30;;;14.30;;
45326;SDS011;31062;49.678;24.560;2022-12-31T06:10:24;25.63;;;14.48;;
45326;SDS011;31062;49.678;24.560;2022-12-31T06:13:10;22.23;;;11.52;;
45326;SDS011;31062;49.678;24.560;2022-12-31T06:15:55;16.83;;;11.68;;
45326;SDS011;31062;49.678;24.560;2022-12-31T06:18:41;22.08;;;12.52;;
45326;SDS011;31062;49.678;24.560;2022-12-31T06:21:26;26.77;;;14.05;;
45326;SDS011;31062;49.678;24.560;2022-12-31T06:24:13;24.42;;;13.45;;
45326;SDS011;31062;49.678;24.560;2022-12-31T06:26:59;29.08;;;14.27;;
45326;SDS011;31062;49.678;24.560;2022-12-31T06:29:44;30.77;;;14.32;;
45326;SDS011;31062;49.678;24.560;2022-12-31T06:32:30;29.00;;;14.65;;
45326;SDS011;31062;49.678;24.560;2022-12-31T06:35:15;25.13;;;13.85;;
45326;SDS011;31062;49.678;24.560;2022-12-31T06:38:01;34.45;;;15.25;;
45326;SDS011;31062;49.678;24.560;2022-12-31T06:40:46;33.10;;;16.10;;
45326;SDS011;31062;49.678;24.560;2022-12-31T06:43:35;32.55;;;16.20;;
45326;SDS011;31062;49.678;24.560;2022-12-31T06:46:23;32.63;;;14.95;;
45326;SDS011;31062;49.678;24.560;2022-12-31T06:49:09;35.90;;;16.60;;
45326;SDS011;31062;49.678;24.560;2022-12-31T06:51:54;42.50;;;17.55;;
45326;SDS011;31062;49.678;24.560;2022-12-31T06:54:40;32.35;;;16.05;;
45326;SDS011;31062;49.678;24.560;2022-12-31T06:57:26;37.95;;;16.92;;
45326;SDS011;31062;49.678;24.560;2022-12-31T07:00:12;27.58;;;15.32;;
45326;SDS011;31062;49.678;24.560;2022-12-31T07:06:11;26.27;;;14.10;;
45326;SDS011;31062;49.678;24.560;2022-12-31T07:09:03;36.93;;;14.37;;
45326;SDS011;31062;49.678;24.560;2022-12-31T07:18:02;32.03;;;16.17;;
45326;SDS011;31062;49.678;24.560;2022-12-31T07:21:00;36.63;;;16.38;;
45326;SDS011;31062;49.678;24.560;2022-12-31T07:23:46;36.10;;;15.55;;
45326;SDS011;31062;49.678;24.560;2022-12-31T07:39:11;46.25;;;19.05;;
45326;SDS011;31062;49.678;24.560;2022-12-31T07:48:39;30.52;;;16.23;;
45326;SDS011;31062;49.678;24.560;2022-12-31T07:51:26;35.58;;;16.98;;
45326;SDS011;31062;49.678;24.560;2022-12-31T07:54:12;33.92;;;16.20;;
45326;SDS011;31062;49.678;24.560;2022-12-31T07:56:58;30.27;;;16.42;;
45326;SDS011;31062;49.678;24.560;2022-12-31T08:03:15;34.13;;;16.73;;
45326;SDS011;31062;49.678;24.560;2022-12-31T08:09:03;40.15;;;16.63;;
45326;SDS011;31062;49.678;24.560;2022-12-31T08:11:54;35.67;;;15.30;;
45326;SDS011;31062;49.678;24.560;2022-12-31T08:14:43;36.63;;;15.70;;
45326;SDS011;31062;49.678;24.560;2022-12-31T08:17:32;31.77;;;15.18;;
45326;SDS011;31062;49.678;24.560;2022-12-31T08:20:18;30.55;;;14.80;;
45326;SDS011;31062;49.678;24.560;2022-12-31T08:31:46;29.52;;;13.07;;
45326;SDS011;31062;49.678;24.560;2022-12-31T08:37:41;21.17;;;13.45;;
45326;SDS011;31062;49.678;24.560;2022-12-31T08:40:47;24.67;;;12.73;;
45326;SDS011;31062;49.678;24.560;2022-12-31T08:49:53;27.73;;;14.90;;
45326;SDS011;31062;49.678;24.560;2022-12-31T08:52:40;26.75;;;15.23;;
45326;SDS011;31062;49.678;24.560;2022-12-31T08:55:26;29.40;;;16.02;;
45326;SDS011;31062;49.678;24.560;2022-12-31T09:01:03;28.40;;;13.43;;
45326;SDS011;31062;49.678;24.560;2022-12-31T09:04:01;23.60;;;14.02;;
45326;SDS011;31062;49.678;24.560;2022-12-31T09:06:57;22.90;;;13.50;;
45326;SDS011;31062;49.678;24.560;2022-12-31T09:10:02;26.75;;;14.05;;
45326;SDS011;31062;49.678;24.560;2022-12-31T09:16:31;19.35;;;9.73;;
45326;SDS011;31062;49.678;24.560;2022-12-31T09:19:21;11.10;;;7.25;;
45326;SDS011;31062;49.678;24.560;2022-12-31T09:22:08;9.55;;;6.57;;
45326;SDS011;31062;49.678;24.560;2022-12-31T09:24:55;7.32;;;5.65;;
45326;SDS011;31062;49.678;24.560;2022-12-31T09:30:57;57.15;;;19.85;;
45326;SDS011;31062;49.678;24.560;2022-12-31T09:36:52;8.95;;;5.30;;
45326;SDS011;31062;49.678;24.560;2022-12-31T09:39:44;8.25;;;5.85;;
45326;SDS011;31062;49.678;24.560;2022-12-31T09:55:26;11.15;;;6.05;;
45326;SDS011;31062;49.678;24.560;2022-12-31T10:10:58;9.52;;;4.95;;
45326;SDS011;31062;49.678;24.560;2022-12-31T10:14:00;10.48;;;7.68;;
45326;SDS011;31062;49.678;24.560;2022-12-31T10:35:49;9.15;;;4.60;;
45326;SDS011;31062;49.678;24.560;2022-12-31T10:39:37;7.13;;;5.22;;
45326;SDS011;31062;49.678;24.560;2022-12-31T10:48:52;5.55;;;4.43;;
45326;SDS011;31062;49.678;24.560;2022-12-31T10:55:36;6.78;;;5.35;;
45326;SDS011;31062;49.678;24.560;2022-12-31T11:01:30;10.68;;;7.13;;
45326;SDS011;31062;49.678;24.560;2022-12-31T11:04:25;8.30;;;5.77;;
45326;SDS011;31062;49.678;24.560;2022-12-31T11:16:43;10.57;;;6.38;;
45326;SDS011;31062;49.678;24.560;2022-12-31T11:22:50;6.45;;;5.28;;
45326;SDS011;31062;49.678;24.560;2022-12-31T11:25:59;5.32;;;4.55;;
45326;SDS011;31062;49.678;24.560;2022-12-31T11:31:52;8.65;;;6.57;;
45326;SDS011;31062;49.678;24.560;2022-12-31T11:37:59;7.35;;;6.07;;
45326;SDS011;31062;49.678;24.560;2022-12-31T11:44:13;10.40;;;6.47;;
45326;SDS011;31062;49.678;24.560;2022-12-31T11:57:24;11.88;;;6.70;;
45326;SDS011;31062;49.678;24.560;2022-12-31T12:03:05;10.82;;;6.93;;
45326;SDS011;31062;49.678;24.560;2022-12-31T12:05:51;8.73;;;6.18;;
45326;SDS011;31062;49.678;24.560;2022-12-31T12:08:37;9.00;;;7.45;;
45326;SDS011;31062;49.678;24.560;2022-12-31T12:11:25;14.20;;;8.57;;
45326;SDS011;31062;49.678;24.560;2022-12-31T12:14:18;10.90;;;7.18;;
45326;SDS011;31062;49.678;24.560;2022-12-31T12:17:07;14.17;;;7.57;;
45326;SDS011;31062;49.678;24.560;2022-12-31T12:19:55;7.05;;;5.82;;
45326;SDS011;31062;49.678;24.560;2022-12-31T12:22:48;9.52;;;6.38;;
45326;SDS011;31062;49.678;24.560;2022-12-31T12:25:40;10.65;;;7.05;;
45326;SDS011;31062;49.678;24.560;2022-12-31T12:28:29;8.10;;;6.25;;
45326;SDS011;31062;49.678;24.560;2022-12-31T12:31:28;7.90;;;5.70;;
45326;SDS011;31062;49.678;24.560;2022-12-31T12:34:20;17.17;;;6.10;;
45326;SDS011;31062;49.678;24.560;2022-12-31T12:40:22;8.05;;;5.03;;
45326;SDS011;31062;49.678;24.560;2022-12-31T12:43:20;6.85;;;5.10;;
45326;SDS011;31062;49.678;24.560;2022-12-31T12:46:19;8.65;;;6.18;;
45326;SDS011;31062;49.678;24.560;2022-12-31T12:49:26;7.25;;;5.45;;
45326;SDS011;31062;49.678;24.560;2022-12-31T12:58:59;14.00;;;6.95;;
45326;SDS011;31062;49.678;24.560;2022-12-31T13:05:20;17.35;;;9.35;;
45326;SDS011;31062;49.678;24.560;2022-12-31T13:08:19;12.93;;;7.75;;
45326;SDS011;31062;49.678;24.560;2022-12-31T13:14:57;10.50;;;6.78;;
45326;SDS011;31062;49.678;24.560;2022-12-31T13:18:03;9.70;;;6.03;;
45326;SDS011;31062;49.678;24.560;2022-12-31T13:27:17;7.95;;;5.78;;
45326;SDS011;31062;49.678;24.560;2022-12-31T13:33:05;8.93;;;6.53;;
45326;SDS011;31062;49.678;24.560;2022-12-31T13:36:06;9.25;;;7.07;;
45326;SDS011;31062;49.678;24.560;2022-12-31T13:38:54;6.90;;;5.55;;
45326;SDS011;31062;49.678;24.560;2022-12-31T13:41:45;7.85;;;6.03;;
45326;SDS011;31062;49.678;24.560;2022-12-31T13:44:38;14.90;;;5.85;;
45326;SDS011;31062;49.678;24.560;2022-12-31T13:47:38;14.10;;;6.55;;
45326;SDS011;31062;49.678;24.560;2022-12-31T13:56:18;13.05;;;7.45;;
45326;SDS011;31062;49.678;24.560;2022-12-31T13:59:19;11.48;;;7.43;;
45326;SDS011;31062;49.678;24.560;2022-12-31T14:05:42;18.48;;;10.68;;
45326;SDS011;31062;49.678;24.560;2022-12-31T14:08:31;12.02;;;7.05;;
45326;SDS011;31062;49.678;24.560;2022-12-31T14:26:26;9.20;;;7.15;;
45326;SDS011;31062;49.678;24.560;2022-12-31T14:42:06;45.40;;;26.63;;
45326;SDS011;31062;49.678;24.560;2022-12-31T14:48:04;21.30;;;13.70;;
45326;SDS011;31062;49.678;24.560;2022-12-31T14:51:06;12.43;;;9.25;;
45326;SDS011;31062;49.678;24.560;2022-12-31T14:53:53;15.02;;;10.15;;
45326;SDS011;31062;49.678;24.560;2022-12-31T14:56:43;18.83;;;10.68;;
45326;SDS011;31062;49.678;24.560;2022-12-31T14:59:30;22.83;;;13.20;;
45326;SDS011;31062;49.678;24.560;2022-12-31T15:02:27;22.50;;;13.82;;
45326;SDS011;31062;49.678;24.560;2022-12-31T15:05:16;24.15;;;12.75;;
45326;SDS011;31062;49.678;24.560;2022-12-31T15:08:09;17.83;;;11.52;;
45326;SDS011;31062;49.678;24.560;2022-12-31T15:14:44;20.63;;;12.35;;
45326;SDS011;31062;49.678;24.560;2022-12-31T15:17:55;26.75;;;14.50;;
45326;SDS011;31062;49.678;24.560;2022-12-31T15:27:02;62.22;;;28.52;;
45326;SDS011;31062;49.678;24.560;2022-12-31T15:29:51;45.25;;;21.77;;
45326;SDS011;31062;49.678;24.560;2022-12-31T15:32:40;43.08;;;21.42;;
45326;SDS011;31062;49.678;24.560;2022-12-31T15:35:42;19.88;;;11.82;;
45326;SDS011;31062;49.678;24.560;2022-12-31T15:44:13;38.20;;;16.98;;
45326;SDS011;31062;49.678;24.560;2022-12-31T15:50:07;32.15;;;15.50;;
45326;SDS011;31062;49.678;24.560;2022-12-31T15:53:01;42.03;;;19.52;;
45326;SDS011;31062;49.678;24.560;2022-12-31T15:55:49;39.00;;;19.10;;
45326;SDS011;31062;49.678;24.560;2022-12-31T15:58:38;32.70;;;16.98;;
45326;SDS011;31062;49.678;24.560;2022-12-31T16:01:28;20.25;;;11.60;;
45326;SDS011;31062;49.678;24.560;2022-12-31T16:07:02;29.88;;;12.93;;
45326;SDS011;31062;49.678;24.560;2022-12-31T16:09:49;30.65;;;13.95;;
45326;SDS011;31062;49.678;24.560;2022-12-31T16:12:38;25.92;;;14.45;;
45326;SDS011;31062;49.678;24.560;2022-12-31T16:15:29;24.05;;;12.70;;
45326;SDS011;31062;49.678;24.560;2022-12-31T16:18:16;19.98;;;9.93;;
45326;SDS011;31062;49.678;24.560;2022-12-31T16:24:29;15.23;;;9.35;;
45326;SDS011;31062;49.678;24.560;2022-12-31T16:27:17;29.70;;;14.23;;
45326;SDS011;31062;49.678;24.560;2022-12-31T16:30:14;39.97;;;16.98;;
45326;SDS011;31062;49.678;24.560;2022-12-31T16:33:13;20.70;;;10.60;;
45326;SDS011;31062;49.678;24.560;2022-12-31T16:36:00;16.27;;;10.40;;
45326;SDS011;31062;49.678;24.560;2022-12-31T16:38:46;12.95;;;8.68;;
45326;SDS011;31062;49.678;24.560;2022-12-31T16:41:39;10.32;;;7.00;;
45326;SDS011;31062;49.678;24.560;2022-12-31T16:44:28;13.25;;;7.05;;
45326;SDS011;31062;49.678;24.560;2022-12-31T16:47:21;15.35;;;7.90;;
45326;SDS011;31062;49.678;24.560;2022-12-31T16:50:17;10.35;;;6.70;;
45326;SDS011;31062;49.678;24.560;2022-12-31T16:53:05;8.57;;;6.38;;
45326;SDS011;31062;49.678;24.560;2022-12-31T16:55:53;7.93;;;5.97;;
45326;SDS011;31062;49.678;24.560;2022-12-31T16:58:44;7.80;;;5.47;;
45326;SDS011;31062;49.678;24.560;2022-12-31T17:01:31;8.25;;;6.15;;
45326;SDS011;31062;49.678;24.560;2022-12-31T17:04:20;7.53;;;6.10;;
45326;SDS011;31062;49.678;24.560;2022-12-31T17:10:18;7.38;;;5.75;;
45326;SDS011;31062;49.678;24.560;2022-12-31T17:13:08;7.78;;;5.53;;
45326;SDS011;31062;49.678;24.560;2022-12-31T17:16:15;7.53;;;5.90;;
45326;SDS011;31062;49.678;24.560;2022-12-31T17:19:02;6.68;;;5.00;;
45326;SDS011;31062;49.678;24.560;2022-12-31T17:21:48;6.18;;;4.80;;
45326;SDS011;31062;49.678;24.560;2022-12-31T17:24:34;5.25;;;4.57;;
45326;SDS011;31062;49.678;24.560;2022-12-31T17:27:21;6.93;;;5.50;;
45326;SDS011;31062;49.678;24.560;2022-12-31T17:30:20;7.57;;;4.78;;
45326;SDS011;31062;49.678;24.560;2022-12-31T17:36:14;7.43;;;5.47;;
45326;SDS011;31062;49.678;24.560;2022-12-31T17:39:16;5.70;;;4.63;;
45326;SDS011;31062;49.678;24.560;2022-12-31T17:42:03;7.32;;;4.70;;
45326;SDS011;31062;49.678;24.560;2022-12-31T17:44:49;6.95;;;5.07;;
45326;SDS011;31062;49.678;24.560;2022-12-31T17:47:38;6.78;;;4.93;;
45326;SDS011;31062;49.678;24.560;2022-12-31T17:50:26;6.93;;;4.60;;
45326;SDS011;31062;49.678;24.560;2022-12-31T17:53:12;6.20;;;4.78;;
45326;SDS011;31062;49.678;24.560;2022-12-31T17:56:00;5.65;;;4.55;;
45326;SDS011;31062;49.678;24.560;2022-12-31T17:58:50;6.18;;;5.05;;
45326;SDS011;31062;49.678;24.560;2022-12-31T18:01:37;5.47;;;4.38;;
45326;SDS011;31062;49.678;24.560;2022-12-31T18:04:24;4.47;;;3.60;;
45326;SDS011;31062;49.678;24.560;2022-12-31T18:07:10;6.25;;;3.83;;
45326;SDS011;31062;49.678;24.560;2022-12-31T18:09:56;5.07;;;3.42;;
45326;SDS011;31062;49.678;24.560;2022-12-31T18:12:42;4.78;;;3.75;;
45326;SDS011;31062;49.678;24.560;2022-12-31T18:15:30;6.07;;;4.25;;
45326;SDS011;31062;49.678;24.560;2022-12-31T18:18:26;5.40;;;3.83;;
45326;SDS011;31062;49.678;24.560;2022-12-31T18:21:24;5.95;;;4.45;;
45326;SDS011;31062;49.678;24.560;2022-12-31T18:24:13;4.45;;;3.58;;
45326;SDS011;31062;49.678;24.560;2022-12-31T18:27:14;4.45;;;3.55;;
45326;SDS011;31062;49.678;24.560;2022-12-31T18:30:02;4.75;;;3.53;;
45326;SDS011;31062;49.678;24.560;2022-12-31T18:32:52;4.93;;;3.70;;
45326;SDS011;31062;49.678;24.560;2022-12-31T18:35:38;4.75;;;3.17;;
45326;SDS011;31062;49.678;24.560;2022-12-31T18:38:44;3.90;;;3.28;;
45326;SDS011;31062;49.678;24.560;2022-12-31T18:41:33;4.88;;;2.72;;
45326;SDS011;31062;49.678;24.560;2022-12-31T18:44:23;4.40;;;3.05;;
45326;SDS011;31062;49.678;24.560;2022-12-31T18:47:16;3.78;;;3.13;;
45326;SDS011;31062;49.678;24.560;2022-12-31T18:50:04;4.00;;;3.53;;
45326;SDS011;31062;49.678;24.560;2022-12-31T18:52:50;4.28;;;2.78;;
45326;SDS011;31062;49.678;24.560;2022-12-31T18:55:38;3.53;;;3.00;;
45326;SDS011;31062;49.678;24.560;2022-12-31T18:58:25;4.47;;;2.92;;
45326;SDS011;31062;49.678;24.560;2022-12-31T19:01:19;3.13;;;2.83;;
45326;SDS011;31062;49.678;24.560;2022-12-31T19:04:14;4.40;;;3.17;;
45326;SDS011;31062;49.678;24.560;2022-12-31T19:07:14;3.78;;;2.90;;
45326;SDS011;31062;49.678;24.560;2022-12-31T19:10:02;6.00;;;2.97;;
45326;SDS011;31062;49.678;24.560;2022-12-31T19:12:49;4.00;;;3.08;;
45326;SDS011;31062;49.678;24.560;2022-12-31T19:15:42;4.10;;;3.25;;
45326;SDS011;31062;49.678;24.560;2022-12-31T19:18:28;4.65;;;2.65;;
45326;SDS011;31062;49.678;24.560;2022-12-31T19:21:18;3.25;;;2.88;;
45326;SDS011;31062;49.678;24.560;2022-12-31T19:24:23;3.08;;;2.78;;
45326;SDS011;31062;49.678;24.560;2022-12-31T19:27:12;3.42;;;2.72;;
45326;SDS011;31062;49.678;24.560;2022-12-31T19:29:58;5.53;;;3.15;;
45326;SDS011;31062;49.678;24.560;2022-12-31T19:32:45;3.45;;;2.42;;
45326;SDS011;31062;49.678;24.560;2022-12-31T19:35:32;4.43;;;2.60;;
45326;SDS011;31062;49.678;24.560;2022-12-31T19:38:22;3.00;;;2.53;;
45326;SDS011;31062;49.678;24.560;2022-12-31T19:41:16;3.42;;;2.40;;
45326;SDS011;31062;49.678;24.560;2022-12-31T19:44:04;2.22;;;1.95;;
45326;SDS011;31062;49.678;24.560;2022-12-31T19:46:51;4.32;;;2.75;;
45326;SDS011;31062;49.678;24.560;2022-12-31T19:49:37;3.50;;;2.58;;
45326;SDS011;31062;49.678;24.560;2022-12-31T19:52:22;3.28;;;2.30;;
45326;SDS011;31062;49.678;24.560;2022-12-31T19:55:08;2.40;;;2.10;;
45326;SDS011;31062;49.678;24.560;2022-12-31T19:57:57;2.88;;;2.10;;
45326;SDS011;31062;49.678;24.560;2022-12-31T20:00:43;3.80;;;2.08;;
45326;SDS011;31062;49.678;24.560;2022-12-31T20:03:38;2.67;;;2.20;;
45326;SDS011;31062;49.678;24.560;2022-12-31T20:06:23;2.67;;;2.40;;
45326;SDS011;31062;49.678;24.560;2022-12-31T20:09:09;5.85;;;2.28;;
45326;SDS011;31062;49.678;24.560;2022-12-31T20:11:56;2.50;;;2.30;;
45326;SDS011;31062;49.678;24.560;2022-12-31T20:14:42;2.60;;;2.40;;
45326;SDS011;31062;49.678;24.560;2022-12-31T20:17:29;2.78;;;2.28;;
45326;SDS011;31062;49.678;24.560;2022-12-31T20:20:15;2.58;;;2.03;;
45326;SDS011;31062;49.678;24.560;2022-12-31T20:23:02;3.38;;;2.58;;
45326;SDS011;31062;49.678;24.560;2022-12-31T20:25:55;2.80;;;2.30;;
45326;SDS011;31062;49.678;24.560;2022-12-31T20:28:42;2.63;;;2.38;;
45326;SDS011;31062;49.678;24.560;2022-12-31T20:31:28;4.50;;;2.70;;
45326;SDS011;31062;49.678;24.560;2022-12-31T20:34:14;3.85;;;2.85;;
45326;SDS011;31062;49.678;24.560;2022-12-31T20:37:00;3.17;;;2.88;;
45326;SDS011;31062;49.678;24.560;2022-12-31T20:39:45;3.33;;;3.03;;
45326;SDS011;31062;49.678;24.560;2022-12-31T20:42:32;3.70;;;2.70;;
45326;SDS011;31062;49.678;24.560;2022-12-31T20:45:20;3.55;;;3.20;;
45326;SDS011;31062;49.678;24.560;2022-12-31T20:48:09;4.85;;;3.05;;
45326;SDS011;31062;49.678;24.560;2022-12-31T20:50:56;4.30;;;3.60;;
45326;SDS011;31062;49.678;24.560;2022-12-31T20:53:50;5.85;;;3.63;;
45326;SDS011;31062;49.678;24.560;2022-12-31T20:56:40;5.15;;;3.40;;
45326;SDS011;31062;49.678;24.560;2022-12-31T20:59:26;8.15;;;4.38;;
45326;SDS011;31062;49.678;24.560;2022-12-31T21:02:13;7.97;;;5.63;;
45326;SDS011;31062;49.678;24.560;2022-12-31T21:05:20;8.40;;;5.75;;
45326;SDS011;31062;49.678;24.560;2022-12-31T21:08:06;10.20;;;7.30;;
45326;SDS011;31062;49.678;24.560;2022-12-31T21:10:51;19.65;;;11.20;;
45326;SDS011;31062;49.678;24.560;2022-12-31T21:13:38;11.88;;;6.88;;
45326;SDS011;31062;49.678;24.560;2022-12-31T21:16:24;8.10;;;6.45;;